createdAt,value
2018-09-21T00:00:48.540Z,94.40
2018-09-21T00:03:16.997Z,94.50
2018-09-21T00:05:45.461Z,94.50
2018-09-21T00:08:13.892Z,94.50
2018-09-21T00:10:42.373Z,94.40
2018-09-21T00:13:10.799Z,94.40
2018-09-21T00:15:39.255Z,94.40
2018-09-21T00:18:07.670Z,94.30
2018-09-21T00:20:36.113Z,94.30
2018-09-21T00:23:04.556Z,94.20
2018-09-21T00:25:33.008Z,94.20
2018-09-21T00:28:01.435Z,94.10
2018-09-21T00:30:29.889Z,94.00
2018-09-21T00:32:58.318Z,94.00
2018-09-21T00:35:26.765Z,94.00
2018-09-21T00:37:55.241Z,93.90
2018-09-21T00:40:23.787Z,93.90
2018-09-21T00:42:52.209Z,93.80
2018-09-21T00:45:20.670Z,93.80
2018-09-21T00:47:49.105Z,93.80
2018-09-21T00:50:17.586Z,93.70
2018-09-21T00:52:46.027Z,93.70
2018-09-21T00:55:14.485Z,93.80
2018-09-21T00:57:42.910Z,93.90
2018-09-21T01:00:11.357Z,93.70
2018-09-21T01:02:39.773Z,93.70
2018-09-21T01:05:08.226Z,93.70
2018-09-21T01:07:36.652Z,93.70
2018-09-21T01:10:05.265Z,93.60
2018-09-21T01:12:33.686Z,93.60
2018-09-21T01:15:02.220Z,93.50
2018-09-21T01:17:30.691Z,93.60
2018-09-21T01:19:59.156Z,93.50
2018-09-21T01:22:27.593Z,93.50
2018-09-21T01:24:56.025Z,93.30
2018-09-21T01:27:24.458Z,93.30
2018-09-21T01:29:52.930Z,93.20
2018-09-21T01:32:21.701Z,93.30
2018-09-21T01:34:50.147Z,93.30
2018-09-21T01:37:18.580Z,93.20
2018-09-21T01:39:47.041Z,93.20
2018-09-21T01:42:15.503Z,93.20
2018-09-21T01:44:43.934Z,93.20
2018-09-21T01:47:12.355Z,93.20
2018-09-21T01:49:40.849Z,93.20
2018-09-21T01:52:09.296Z,93.10
2018-09-21T01:54:37.726Z,93.20
2018-09-21T01:57:05.850Z,93.20
2018-09-21T01:59:34.276Z,93.20
2018-09-21T02:02:02.709Z,93.30
2018-09-21T02:04:36.425Z,93.30
2018-09-21T02:07:04.925Z,93.30
2018-09-21T02:09:33.408Z,93.30
2018-09-21T02:12:01.926Z,93.30
2018-09-21T02:14:30.433Z,93.30
2018-09-21T02:16:58.977Z,93.30
2018-09-21T02:19:27.510Z,93.30
2018-09-21T02:21:55.953Z,93.30
2018-09-21T02:24:24.397Z,93.30
2018-09-21T02:26:52.829Z,93.30
2018-09-21T02:29:21.254Z,93.30
2018-09-21T02:31:50.015Z,93.40
2018-09-21T02:34:19.001Z,93.40
2018-09-21T02:36:47.481Z,93.30
2018-09-21T02:39:15.885Z,93.40
2018-09-21T02:41:44.750Z,93.30
2018-09-21T02:44:13.200Z,93.60
2018-09-21T02:46:41.986Z,93.60
2018-09-21T02:49:10.434Z,93.50
2018-09-21T02:51:38.875Z,93.60
2018-09-21T02:54:07.379Z,93.60
2018-09-21T02:56:36.487Z,93.60
2018-09-21T02:59:05.056Z,93.70
2018-09-21T03:01:33.515Z,93.70
2018-09-21T03:04:01.960Z,93.70
2018-09-21T03:06:30.416Z,93.80
2018-09-21T03:08:58.898Z,93.80
2018-09-21T03:11:27.334Z,93.80
2018-09-21T03:13:55.757Z,93.90
2018-09-21T03:16:25.156Z,94.00
2018-09-21T03:18:53.613Z,94.00
2018-09-21T03:21:22.354Z,94.10
2018-09-21T03:23:50.863Z,94.10
2018-09-21T03:26:19.268Z,94.20
2018-09-21T03:28:47.712Z,94.20
2018-09-21T03:31:16.153Z,94.30
2018-09-21T03:33:44.634Z,94.30
2018-09-21T03:36:13.057Z,94.50
2018-09-21T03:38:41.497Z,94.60
2018-09-21T03:41:10.062Z,94.80
2018-09-21T03:43:38.567Z,94.80
2018-09-21T03:46:07.366Z,94.80
2018-09-21T03:48:35.812Z,94.90
2018-09-21T03:51:04.419Z,95.00
2018-09-21T03:53:32.862Z,95.10
2018-09-21T03:56:01.299Z,95.20
2018-09-21T03:58:29.736Z,95.30
2018-09-21T04:00:58.204Z,95.40
2018-09-21T04:03:26.623Z,95.40
2018-09-21T04:05:55.059Z,95.60
2018-09-21T04:08:23.530Z,95.70
2018-09-21T04:10:51.986Z,95.70
2018-09-21T04:13:20.410Z,95.80
2018-09-21T04:15:48.894Z,95.90
2018-09-21T04:18:17.314Z,96.00
2018-09-21T04:20:45.845Z,96.00
2018-09-21T04:23:14.329Z,96.00
2018-09-21T04:25:42.780Z,96.00
2018-09-21T04:28:11.193Z,96.10
2018-09-21T04:30:39.745Z,96.20
2018-09-21T04:33:08.197Z,96.30
2018-09-21T04:35:36.625Z,96.30
2018-09-21T04:38:05.081Z,96.40
2018-09-21T04:40:33.529Z,96.50
2018-09-21T04:43:01.994Z,96.60
2018-09-21T04:45:30.466Z,96.60
2018-09-21T04:47:58.905Z,96.70
2018-09-21T04:50:27.351Z,96.80
2018-09-21T04:52:55.922Z,96.90
2018-09-21T04:55:24.393Z,96.90
2018-09-21T04:57:52.880Z,97.00
2018-09-21T05:00:21.337Z,97.00
2018-09-21T05:02:49.804Z,97.00
2018-09-21T05:05:18.269Z,96.90
2018-09-21T05:07:46.710Z,96.80
2018-09-21T05:10:15.133Z,96.70
2018-09-21T05:12:43.569Z,96.60
2018-09-21T05:15:12.005Z,96.40
2018-09-21T05:17:40.473Z,96.20
2018-09-21T05:20:08.977Z,95.50
2018-09-21T05:22:37.426Z,95.40
2018-09-21T05:25:06.337Z,95.00
2018-09-21T05:27:34.878Z,95.00
2018-09-21T05:30:03.341Z,94.20
2018-09-21T05:32:31.793Z,93.10
2018-09-21T05:35:00.248Z,92.50
2018-09-21T05:37:28.662Z,91.50
2018-09-21T05:39:57.117Z,91.00
2018-09-21T05:42:25.635Z,91.20
2018-09-21T05:44:54.057Z,91.30
2018-09-21T05:47:22.481Z,91.20
2018-09-21T05:49:50.949Z,90.60
2018-09-21T05:52:19.400Z,90.10
2018-09-21T05:54:47.825Z,89.80
2018-09-21T05:57:16.281Z,89.30
2018-09-21T05:59:45.092Z,89.10
2018-09-21T06:02:13.787Z,89.20
2018-09-21T06:04:45.151Z,89.00
2018-09-21T06:07:14.333Z,89.10
2018-09-21T06:09:49.382Z,89.10
2018-09-21T06:12:17.814Z,89.10
2018-09-21T06:14:46.501Z,89.10
2018-09-21T06:17:14.925Z,88.90
2018-09-21T06:19:43.686Z,89.30
2018-09-21T06:22:12.144Z,89.20
2018-09-21T06:24:41.357Z,89.60
2018-09-21T06:27:10.499Z,90.00
2018-09-21T06:29:38.933Z,90.00
2018-09-21T06:32:07.382Z,90.20
2018-09-21T06:34:35.864Z,90.20
2018-09-21T06:37:04.606Z,90.30
2018-09-21T06:39:33.502Z,90.50
2018-09-21T06:42:01.999Z,90.80
2018-09-21T06:44:30.453Z,90.90
2018-09-21T06:46:59.208Z,91.00
2018-09-21T06:49:28.582Z,91.10
2018-09-21T06:51:57.098Z,91.30
2018-09-21T06:54:25.781Z,91.40
2018-09-21T06:56:54.600Z,91.50
2018-09-21T06:59:23.109Z,92.00
2018-09-21T07:01:51.622Z,92.00
2018-09-21T07:04:20.116Z,92.20
2018-09-21T07:06:48.650Z,92.40
2018-09-21T07:09:17.175Z,92.70
2018-09-21T07:11:45.604Z,92.90
2018-09-21T07:14:14.061Z,93.30
2018-09-21T07:16:42.595Z,93.90
2018-09-21T07:19:11.076Z,93.90
2018-09-21T07:21:41.282Z,94.00
2018-09-21T07:24:09.713Z,93.90
2018-09-21T07:26:38.180Z,94.00
2018-09-21T07:29:06.750Z,93.80
2018-09-21T07:31:35.176Z,93.90
2018-09-21T07:34:03.639Z,93.90
2018-09-21T07:36:32.119Z,93.90
2018-09-21T07:39:00.686Z,94.00
2018-09-21T07:41:29.155Z,94.00
2018-09-21T07:43:57.631Z,93.90
2018-09-21T07:46:26.138Z,94.10
2018-09-21T07:48:54.601Z,94.20
2018-09-21T07:51:23.053Z,94.80
2018-09-21T07:53:51.509Z,95.40
2018-09-21T07:56:19.947Z,96.60
2018-09-21T07:58:48.441Z,97.40
2018-09-21T08:01:16.885Z,98.20
2018-09-21T08:03:45.382Z,99.50
2018-09-21T08:06:13.859Z,99.90
2018-09-21T08:08:42.282Z,99.90
2018-09-21T08:11:10.782Z,99.90
2018-09-21T08:13:39.307Z,99.90
2018-09-21T08:16:07.749Z,99.90
2018-09-21T08:18:37.206Z,99.90
2018-09-21T08:21:05.692Z,99.90
2018-09-21T08:23:34.213Z,99.90
2018-09-21T08:26:02.673Z,99.90
2018-09-21T08:28:31.117Z,99.90
2018-09-21T08:31:00.155Z,99.90
2018-09-21T08:33:28.614Z,99.90
2018-09-21T08:35:57.043Z,99.90
2018-09-21T08:38:25.506Z,99.90
2018-09-21T08:40:53.924Z,99.90
2018-09-21T08:43:22.381Z,99.90
2018-09-21T08:45:50.853Z,99.90
2018-09-21T08:48:19.331Z,99.90
2018-09-21T08:50:47.825Z,99.90
2018-09-21T08:53:16.245Z,99.90
2018-09-21T08:55:44.725Z,99.90
2018-09-21T08:58:13.166Z,99.90
2018-09-21T09:00:41.613Z,99.90
2018-09-21T09:03:10.189Z,99.90
2018-09-21T09:05:38.605Z,99.90
2018-09-21T09:08:08.269Z,99.90
2018-09-21T09:10:36.694Z,99.90
2018-09-21T09:13:05.161Z,99.90
2018-09-21T09:15:33.628Z,99.90
2018-09-21T09:18:02.078Z,99.90
2018-09-21T09:20:30.503Z,99.90
2018-09-21T09:22:59.001Z,99.90
2018-09-21T09:25:27.769Z,99.90
2018-09-21T09:27:56.198Z,99.90
2018-09-21T09:30:24.626Z,99.90
2018-09-21T09:32:53.098Z,99.90
2018-09-21T09:35:21.546Z,99.90
2018-09-21T09:37:49.986Z,99.90
2018-09-21T09:40:18.450Z,99.90
2018-09-21T09:42:46.938Z,99.90
2018-09-21T09:45:15.617Z,99.90
2018-09-21T09:47:44.093Z,99.90
2018-09-21T09:50:12.835Z,99.90
2018-09-21T09:52:41.941Z,99.90
2018-09-21T09:55:10.408Z,99.90
2018-09-21T09:57:39.309Z,99.90
2018-09-21T10:00:08.355Z,99.90
2018-09-21T10:02:36.938Z,99.90
2018-09-21T10:05:05.663Z,99.90
2018-09-21T10:07:34.120Z,99.90
2018-09-21T10:10:02.566Z,99.90
2018-09-21T10:12:31.040Z,99.90
2018-09-21T10:14:59.492Z,99.90
2018-09-21T10:17:27.920Z,99.90
2018-09-21T10:19:56.385Z,99.90
2018-09-21T10:22:25.369Z,99.90
2018-09-21T10:24:53.854Z,99.90
2018-09-21T10:27:22.416Z,99.90
2018-09-21T10:29:51.727Z,99.90
2018-09-21T10:32:20.294Z,99.90
2018-09-21T10:34:48.752Z,99.90
2018-09-21T10:37:17.568Z,99.90
2018-09-21T10:39:46.053Z,99.90
2018-09-21T10:42:14.562Z,99.90
2018-09-21T10:44:43.027Z,99.90
2018-09-21T10:47:11.537Z,99.90
2018-09-21T10:49:39.998Z,99.90
2018-09-21T10:52:17.462Z,99.90
2018-09-21T10:54:45.952Z,99.90
2018-09-21T10:57:14.376Z,99.90
2018-09-21T10:59:42.825Z,99.90
2018-09-21T11:02:11.298Z,99.90
2018-09-21T11:04:39.801Z,99.90
2018-09-21T11:07:08.252Z,99.90
2018-09-21T11:09:36.681Z,99.90
2018-09-21T11:12:05.898Z,99.90
2018-09-21T11:14:34.354Z,99.90
2018-09-21T11:17:02.822Z,99.90
2018-09-21T11:19:31.339Z,99.90
2018-09-21T11:21:59.802Z,99.90
2018-09-21T11:24:28.263Z,99.90
2018-09-21T11:26:56.722Z,99.90
2018-09-21T11:29:25.244Z,99.90
2018-09-21T11:31:53.710Z,99.90
2018-09-21T11:34:22.191Z,99.90
2018-09-21T11:36:51.578Z,99.90
2018-09-21T11:39:20.020Z,99.90
2018-09-21T11:41:49.646Z,99.90
2018-09-21T11:44:18.118Z,99.90
2018-09-21T11:46:46.988Z,99.90
2018-09-21T11:49:16.368Z,99.90
2018-09-21T11:51:44.945Z,99.90
2018-09-21T11:54:13.647Z,99.90
2018-09-21T11:56:42.412Z,99.90
2018-09-21T11:59:10.973Z,99.90
2018-09-21T12:01:39.484Z,99.90
2018-09-21T12:04:07.981Z,99.90
2018-09-21T12:06:36.428Z,99.90
2018-09-21T12:09:06.032Z,99.90
2018-09-21T12:11:34.794Z,99.90
2018-09-21T12:14:03.504Z,99.90
2018-09-21T12:16:33.252Z,99.90
2018-09-21T12:19:01.826Z,99.90
2018-09-21T12:21:30.397Z,99.90
2018-09-21T12:23:59.546Z,99.80
2018-09-21T12:26:29.195Z,99.80
2018-09-21T12:28:57.675Z,99.60
2018-09-21T12:31:27.009Z,98.80
2018-09-21T12:33:56.671Z,98.70
2018-09-21T12:36:25.171Z,98.00
2018-09-21T12:38:53.858Z,98.30
2018-09-21T12:41:23.730Z,98.30
2018-09-21T12:43:52.217Z,98.30
2018-09-21T12:46:25.541Z,98.40
2018-09-21T12:48:56.315Z,98.50
2018-09-21T12:51:24.877Z,98.10
2018-09-21T12:53:53.731Z,98.30
2018-09-21T12:56:22.267Z,97.20
2018-09-21T12:58:51.136Z,97.40
2018-09-21T13:01:19.653Z,97.90
2018-09-21T13:03:49.929Z,97.80
2018-09-21T13:06:18.438Z,98.20
2018-09-21T13:08:47.109Z,98.00
2018-09-21T13:11:15.581Z,97.10
2018-09-21T13:13:44.030Z,97.20
2018-09-21T13:16:12.566Z,97.20
2018-09-21T13:18:41.386Z,97.30
2018-09-21T13:21:09.873Z,97.20
2018-09-21T13:23:38.303Z,96.90
2018-09-21T13:26:06.820Z,96.70
2018-09-21T13:28:35.345Z,95.90
2018-09-21T13:31:03.871Z,95.70
2018-09-21T13:33:32.426Z,94.60
2018-09-21T13:36:00.901Z,94.40
2018-09-21T13:38:29.368Z,93.80
2018-09-21T13:40:57.847Z,93.10
2018-09-21T13:43:26.368Z,92.00
2018-09-21T13:45:54.825Z,91.50
2018-09-21T13:48:23.302Z,91.70
2018-09-21T13:50:51.780Z,91.40
2018-09-21T13:53:20.238Z,91.10
2018-09-21T13:55:48.990Z,87.90
2018-09-21T13:58:17.445Z,86.60
2018-09-21T14:00:45.906Z,86.50
2018-09-21T14:03:14.353Z,87.20
2018-09-21T14:05:42.880Z,87.50
2018-09-21T14:08:11.363Z,87.90
2018-09-21T14:10:39.801Z,88.20
2018-09-21T14:13:09.361Z,89.20
2018-09-21T14:15:37.852Z,90.10
2018-09-21T14:18:06.382Z,88.50
2018-09-21T14:20:34.859Z,88.90
2018-09-21T14:23:03.636Z,88.80
2018-09-21T14:25:32.061Z,88.60
2018-09-21T14:28:00.524Z,88.50
2018-09-21T14:30:28.970Z,87.80
2018-09-21T14:32:57.426Z,87.50
2018-09-21T14:35:28.712Z,87.40
2018-09-21T14:37:57.197Z,88.30
2018-09-21T14:40:26.599Z,88.50
2018-09-21T14:42:55.061Z,88.70
2018-09-21T14:45:23.546Z,88.50
2018-09-21T14:47:52.026Z,88.50
2018-09-21T14:50:20.451Z,89.50
2018-09-21T14:52:48.975Z,89.40
2018-09-21T14:55:17.457Z,87.90
2018-09-21T14:57:45.888Z,86.00
2018-09-21T15:00:14.370Z,86.10
2018-09-21T15:02:42.790Z,87.10
2018-09-21T15:05:11.240Z,85.90
2018-09-21T15:07:39.696Z,86.40
2018-09-21T15:10:08.169Z,85.40
2018-09-21T15:12:36.665Z,85.60
2018-09-21T15:15:05.462Z,86.10
2018-09-21T15:17:33.912Z,86.70
2018-09-21T15:20:02.382Z,87.50
2018-09-21T15:22:30.798Z,87.10
2018-09-21T15:24:59.241Z,86.80
2018-09-21T15:27:27.685Z,86.50
2018-09-21T15:29:56.191Z,87.10
2018-09-21T15:32:24.629Z,86.80
2018-09-21T15:34:53.266Z,86.60
2018-09-21T15:37:21.721Z,85.70
2018-09-21T15:39:50.137Z,86.20
2018-09-21T15:42:18.589Z,85.90
2018-09-21T15:44:47.034Z,86.00
2018-09-21T15:47:15.498Z,85.00
2018-09-21T15:49:43.946Z,85.00
2018-09-21T15:52:12.369Z,83.90
2018-09-21T15:54:40.849Z,83.40
2018-09-21T15:57:09.282Z,82.60
2018-09-21T15:59:37.783Z,82.50
2018-09-21T16:02:06.245Z,83.20
2018-09-21T16:04:34.724Z,79.10
2018-09-21T16:07:03.234Z,79.20
2018-09-21T16:09:31.639Z,79.50
2018-09-21T16:12:00.097Z,78.80
2018-09-21T16:14:28.773Z,78.90
2018-09-21T16:16:57.198Z,79.20
2018-09-21T16:19:25.713Z,79.10
2018-09-21T16:21:54.160Z,79.40
2018-09-21T16:24:22.612Z,79.10
2018-09-21T16:26:51.193Z,79.80
2018-09-21T16:29:19.669Z,80.50
2018-09-21T16:31:48.134Z,81.00
2018-09-21T16:34:16.593Z,81.80
2018-09-21T16:36:45.114Z,82.30
2018-09-21T16:39:13.496Z,82.90
2018-09-21T16:41:42.142Z,84.00
2018-09-21T16:44:11.510Z,85.10
2018-09-21T16:46:39.995Z,84.90
2018-09-21T16:49:08.449Z,86.20
2018-09-21T16:51:36.943Z,86.30
2018-09-21T16:54:05.360Z,85.70
2018-09-21T16:56:33.807Z,86.00
2018-09-21T16:59:02.339Z,86.20
2018-09-21T17:01:30.757Z,86.00
2018-09-21T17:03:59.197Z,86.50
2018-09-21T17:06:27.649Z,86.60
2018-09-21T17:08:56.101Z,87.10
2018-09-21T17:11:24.729Z,86.50
2018-09-21T17:13:53.131Z,87.00
2018-09-21T17:16:22.578Z,87.40
2018-09-21T17:18:51.924Z,87.80
2018-09-21T17:21:20.603Z,88.00
2018-09-21T17:23:49.134Z,88.00
2018-09-21T17:26:17.754Z,88.90
2018-09-21T17:28:46.239Z,89.00
2018-09-21T17:31:14.738Z,88.60
2018-09-21T17:33:43.222Z,89.10
2018-09-21T17:36:11.742Z,88.20
2018-09-21T17:38:40.209Z,88.70
2018-09-21T17:41:08.715Z,88.70
2018-09-21T17:43:37.144Z,89.00
2018-09-21T17:46:05.661Z,87.60
2018-09-21T17:48:34.093Z,87.60
2018-09-21T17:51:02.534Z,87.60
2018-09-21T17:53:31.137Z,88.00
2018-09-21T17:55:59.590Z,87.40
2018-09-21T17:58:28.058Z,87.40
2018-09-21T18:00:56.800Z,87.10
2018-09-21T18:03:25.247Z,87.60
2018-09-21T18:05:53.681Z,87.10
2018-09-21T18:08:22.133Z,86.60
2018-09-21T18:10:50.561Z,86.40
2018-09-21T18:13:19.021Z,86.50
2018-09-21T18:15:47.496Z,86.90
2018-09-21T18:18:15.940Z,86.90
2018-09-21T18:20:44.526Z,86.70
2018-09-21T18:23:13.026Z,86.80
2018-09-21T18:25:41.689Z,86.90
2018-09-21T18:28:10.096Z,87.10
2018-09-21T18:30:38.715Z,87.00
2018-09-21T18:33:07.366Z,87.20
2018-09-21T18:35:35.858Z,87.10
2018-09-21T18:38:04.306Z,86.80
2018-09-21T18:40:32.854Z,86.70
2018-09-21T18:43:01.408Z,86.80
2018-09-21T18:45:30.048Z,87.60
2018-09-21T18:47:58.620Z,87.20
2018-09-21T18:50:27.157Z,87.10
2018-09-21T18:52:55.664Z,87.50
2018-09-21T18:55:24.222Z,88.10
2018-09-21T18:57:52.752Z,88.30
2018-09-21T19:00:21.244Z,88.40
2018-09-21T19:02:49.729Z,88.90
2018-09-21T19:05:18.236Z,89.20
2018-09-21T19:07:46.760Z,89.50
2018-09-21T19:10:15.312Z,89.20
2018-09-21T19:12:43.806Z,89.40
2018-09-21T19:15:12.366Z,89.80
2018-09-21T19:17:40.883Z,89.90
2018-09-21T19:20:10.089Z,90.00
2018-09-21T19:22:38.569Z,89.90
2018-09-21T19:25:07.235Z,90.00
2018-09-21T19:27:35.919Z,90.10
2018-09-21T19:30:04.601Z,90.20
2018-09-21T19:32:33.173Z,90.10
2018-09-21T19:35:01.655Z,90.30
2018-09-21T19:37:30.189Z,90.40
2018-09-21T19:39:58.694Z,90.40
2018-09-21T19:42:27.258Z,90.70
2018-09-21T19:44:55.742Z,90.70
2018-09-21T19:47:24.220Z,90.80
2018-09-21T19:49:52.645Z,90.80
2018-09-21T19:52:21.126Z,90.80
2018-09-21T19:54:49.647Z,90.90
2018-09-21T19:57:18.117Z,91.00
2018-09-21T19:59:46.570Z,90.70
2018-09-21T20:02:15.043Z,90.90
2018-09-21T20:04:43.538Z,91.20
2018-09-21T20:07:11.957Z,91.20
2018-09-21T20:09:40.455Z,91.00
2018-09-21T20:12:08.987Z,91.00
2018-09-21T20:14:37.484Z,91.10
2018-09-21T20:17:06.040Z,91.00
2018-09-21T20:19:34.508Z,91.30
2018-09-21T20:22:02.970Z,91.30
2018-09-21T20:24:31.589Z,91.40
2018-09-21T20:27:00.106Z,91.50
2018-09-21T20:29:28.651Z,91.50
2018-09-21T20:32:06.426Z,91.70
2018-09-21T20:34:34.885Z,91.70
2018-09-21T20:37:03.357Z,91.70
2018-09-21T20:39:31.866Z,91.60
2018-09-21T20:42:00.350Z,91.80
2018-09-21T20:44:28.830Z,91.80
2018-09-21T20:46:57.281Z,91.90
2018-09-21T20:49:25.787Z,91.90
2018-09-21T20:51:54.304Z,92.10
2018-09-21T20:54:22.701Z,92.20
2018-09-21T20:56:51.190Z,92.20
2018-09-21T20:59:19.704Z,92.20
2018-09-21T21:01:48.152Z,92.40
2018-09-21T21:04:16.617Z,92.50
2018-09-21T21:06:45.093Z,92.60
2018-09-21T21:09:15.352Z,92.60
2018-09-21T21:11:43.885Z,92.80
2018-09-21T21:14:13.370Z,93.00
2018-09-21T21:16:41.833Z,92.90
2018-09-21T21:19:10.272Z,92.90
2018-09-21T21:21:38.757Z,93.00
2018-09-21T21:24:07.328Z,93.10
2018-09-21T21:26:35.828Z,93.10
2018-09-21T21:29:04.280Z,93.30
2018-09-21T21:31:32.774Z,93.40
2018-09-21T21:34:01.224Z,93.30
2018-09-21T21:36:30.099Z,93.40
2018-09-21T21:38:58.549Z,93.40
2018-09-21T21:41:27.039Z,93.40
2018-09-21T21:43:55.517Z,93.30
2018-09-21T21:46:23.993Z,93.40
2018-09-21T21:48:52.507Z,93.40
2018-09-21T21:51:20.982Z,93.50
2018-09-21T21:53:49.420Z,93.60
2018-09-21T21:56:17.894Z,93.50
2018-09-21T21:58:46.329Z,93.60
2018-09-21T22:01:19.978Z,93.60
2018-09-21T22:03:49.430Z,93.50
2018-09-21T22:06:17.874Z,93.60
2018-09-21T22:08:46.334Z,93.80
2018-09-21T22:11:20.142Z,93.80
2018-09-21T22:13:53.941Z,93.90
2018-09-21T22:16:22.405Z,94.00
2018-09-21T22:18:50.877Z,94.10
2018-09-21T22:21:19.331Z,94.20
2018-09-21T22:23:47.757Z,94.10
2018-09-21T22:26:16.253Z,94.20
2018-09-21T22:28:44.700Z,94.30
2018-09-21T22:31:13.136Z,94.40
2018-09-21T22:33:41.590Z,94.40
2018-09-21T22:36:10.071Z,94.50
2018-09-21T22:38:38.513Z,94.50
2018-09-21T22:41:06.941Z,94.70
2018-09-21T22:43:35.425Z,95.00
2018-09-21T22:46:03.863Z,94.90
2018-09-21T22:48:32.402Z,94.90
2018-09-21T22:51:00.833Z,95.10
2018-09-21T22:53:29.342Z,95.20
2018-09-21T22:55:57.809Z,95.20
2018-09-21T22:58:26.255Z,95.30
2018-09-21T23:00:54.740Z,95.30
2018-09-21T23:03:23.162Z,95.30
2018-09-21T23:05:51.621Z,95.30
2018-09-21T23:08:20.054Z,95.30
2018-09-21T23:10:48.550Z,95.40
2018-09-21T23:13:17.011Z,95.30
2018-09-21T23:15:45.479Z,95.40
2018-09-21T23:18:13.961Z,95.60
2018-09-21T23:20:42.410Z,95.60
2018-09-21T23:23:10.875Z,95.60
2018-09-21T23:25:39.357Z,95.60
2018-09-21T23:28:08.747Z,95.80
2018-09-21T23:30:37.200Z,95.80
2018-09-21T23:33:05.693Z,95.80
2018-09-21T23:35:34.153Z,95.90
2018-09-21T23:38:02.619Z,95.80
2018-09-21T23:40:31.109Z,95.90
2018-09-21T23:42:59.721Z,96.00
2018-09-21T23:45:28.213Z,96.00
2018-09-21T23:47:56.659Z,96.20
2018-09-21T23:50:25.099Z,96.20
2018-09-21T23:52:53.846Z,95.90
2018-09-21T23:55:22.268Z,96.00
2018-09-21T23:57:50.727Z,96.20
